Time;durP1;ratioP1;P1;durP2;ratioP2;P2;SDS_P1;SDS_P2;PMS_P1;PMS_P2;Temp;Humidity;BMP_temperature;BMP_pressure;BME280_temperature;BME280_humidity;BME280_pressure;Samples;Min_cycle;Max_cycle;Signal;HPM_P1;HPM_P2
2022/10/06 00:01:58;;;;;;;16.23;2.23;;;;;;;-145.18;100.00;46685.78;6182551;23;20427;-75
2022/10/06 00:04:24;;;;;;;17.20;2.97;;;;;;;-145.18;100.00;46689.69;6182572;23;20095;-74
2022/10/06 00:06:49;;;;;;;20.50;2.63;;;;;;;-145.18;100.00;46689.69;6182697;23;20017;-75
2022/10/06 00:09:15;;;;;;;16.13;1.80;;;;;;;-145.18;100.00;46691.66;6183250;23;20001;-75
2022/10/06 00:11:40;;;;;;;23.43;3.10;;;;;;;-145.18;100.00;46687.75;6182680;23;20009;-75
2022/10/06 00:14:06;;;;;;;19.63;2.60;;;;;;;-145.18;100.00;46687.75;6182783;23;20079;-75
2022/10/06 00:16:31;;;;;;;21.63;2.73;;;;;;;-145.18;100.00;46691.66;6182493;23;20009;-75
2022/10/06 00:18:57;;;;;;;23.57;2.97;;;;;;;-145.18;100.00;46691.66;6183438;23;20012;-75
2022/10/06 00:21:23;;;;;;;15.17;1.80;;;;;;;-145.18;100.00;46687.75;6182448;23;20450;-75
2022/10/06 00:23:48;;;;;;;15.43;2.43;;;;;;;-145.18;100.00;46695.56;6182805;23;20016;-76
2022/10/06 00:26:15;;;;;;;14.80;2.40;;;;;;;-145.18;100.00;46685.78;6182607;23;20009;-76
2022/10/06 00:28:47;;;;;;;16.17;2.80;;;;;;;-145.18;100.00;46691.66;6183056;23;20005;-75
2022/10/06 00:31:12;;;;;;;12.87;2.13;;;;;;;-145.18;100.00;46687.75;6182507;23;20335;-75
2022/10/06 00:33:38;;;;;;;21.20;2.67;;;;;;;-145.18;100.00;46689.69;6182710;23;20096;-75
2022/10/06 00:36:04;;;;;;;19.77;2.27;;;;;;;-145.18;100.00;46687.75;6183041;23;20468;-75
2022/10/06 00:38:29;;;;;;;16.80;2.20;;;;;;;-145.18;100.00;46687.75;6182027;23;20386;-75
2022/10/06 00:40:55;;;;;;;17.30;2.90;;;;;;;-145.18;100.00;46693.59;6182934;23;20013;-75
2022/10/06 00:43:42;;;;;;;19.00;2.30;;;;;;;-145.18;100.00;46691.66;6182511;23;20338;-75
2022/10/06 00:46:12;;;;;;;19.10;2.27;;;;;;;-145.18;100.00;46691.66;6182630;23;20068;-75
2022/10/06 00:48:38;;;;;;;20.77;3.17;;;;;;;-145.18;100.00;46691.66;6182255;23;20045;-75
2022/10/06 00:51:04;;;;;;;14.93;2.70;;;;;;;-145.18;100.00;46693.59;6182629;23;20147;-76
2022/10/06 00:53:31;;;;;;;14.77;2.40;;;;;;;-145.18;100.00;46683.84;6181984;23;20104;-75
2022/10/06 00:55:56;;;;;;;12.20;2.07;;;;;;;-145.18;100.00;46687.75;6182641;23;20009;-75
2022/10/06 00:58:22;;;;;;;11.10;1.60;;;;;;;-145.18;100.00;46691.66;6181948;23;20005;-75
2022/10/06 01:00:53;;;;;;;12.60;2.10;;;;;;;-145.18;100.00;46691.66;6182167;23;20013;-75
2022/10/06 01:03:35;;;;;;;17.73;2.30;;;;;;;-145.18;100.00;46693.59;6182286;23;20481;-75
2022/10/06 01:06:02;;;;;;;21.40;2.60;;;;;;;-145.18;100.00;46683.84;6182471;23;20013;-75
2022/10/06 01:08:29;;;;;;;15.50;1.90;;;;;;;-145.18;100.00;46687.75;6182139;23;20287;-75
2022/10/06 01:10:55;;;;;;;12.97;2.00;;;;;;;-145.18;100.00;46685.78;6181797;23;20009;-75
2022/10/06 01:13:21;;;;;;;15.80;2.73;;;;;;;-145.18;100.00;46697.50;6181768;23;20016;-74
2022/10/06 01:16:04;;;;;;;15.80;2.77;;;;;;;-145.18;100.00;46691.66;6182525;23;20036;-74
2022/10/06 01:18:31;;;;;;;17.53;2.20;;;;;;;-145.18;100.00;46695.56;6181661;23;20408;-75
2022/10/06 01:21:08;;;;;;;15.10;1.83;;;;;;;-145.18;100.00;46689.69;6182636;23;20505;-74
2022/10/06 01:23:35;;;;;;;15.10;2.40;;;;;;;-145.18;100.00;46689.69;6181584;23;20001;-75
2022/10/06 01:26:05;;;;;;;19.87;2.60;;;;;;;-145.18;100.00;46697.50;6182300;23;20005;-75
2022/10/06 01:28:31;;;;;;;13.13;1.93;;;;;;;-145.18;100.00;46693.59;6181844;23;20000;-74
2022/10/06 01:30:59;;;;;;;16.73;1.93;;;;;;;-145.18;100.00;46691.66;6182298;23;20016;-75
2022/10/06 01:33:25;;;;;;;22.03;2.90;;;;;;;-145.18;100.00;46691.66;6181934;23;20017;-74
2022/10/06 01:35:51;;;;;;;16.47;2.30;;;;;;;-145.18;100.00;46693.59;6182318;23;20013;-74
2022/10/06 01:38:18;;;;;;;15.47;2.43;;;;;;;-145.18;100.00;46693.59;6181853;23;20005;-75
2022/10/06 01:40:44;;;;;;;13.93;1.97;;;;;;;-145.18;100.00;46689.69;6182434;23;20473;-74
2022/10/06 01:43:09;;;;;;;10.60;1.70;;;;;;;-145.18;100.00;46691.66;6181394;23;20005;-75
2022/10/06 01:45:35;;;;;;;15.00;2.10;;;;;;;-145.18;100.00;46687.75;6180886;23;20012;-75
2022/10/06 01:48:00;;;;;;;13.90;2.30;;;;;;;-145.18;100.00;46691.66;6181916;23;20097;-75
2022/10/06 01:50:26;;;;;;;12.93;2.43;;;;;;;-145.18;100.00;46683.84;6182306;23;20423;-75
2022/10/06 01:52:51;;;;;;;15.57;1.87;;;;;;;-145.18;100.00;46701.41;6181410;23;20312;-75
2022/10/06 01:55:16;;;;;;;10.50;1.73;;;;;;;-145.18;100.00;46683.84;6182144;23;20092;-75
2022/10/06 01:57:42;;;;;;;11.23;2.00;;;;;;;-145.18;100.00;46691.66;6181990;23;20010;-75
2022/10/06 02:00:09;;;;;;;13.77;1.80;;;;;;;-145.18;100.00;46685.78;6182211;23;20013;-75
2022/10/06 02:02:35;;;;;;;18.47;2.20;;;;;;;-145.18;100.00;46691.66;6184551;22;20071;-75
2022/10/06 02:05:00;;;;;;;19.07;3.30;;;;;;;-145.18;100.00;46681.88;6211064;23;20318;-75
2022/10/06 02:07:26;;;;;;;11.03;2.57;;;;;;;-145.18;100.00;46689.69;6212054;23;20330;-75
2022/10/06 02:09:51;;;;;;;11.07;1.80;;;;;;;-145.18;100.00;46683.84;6211956;23;20090;-75
2022/10/06 02:12:17;;;;;;;19.63;2.30;;;;;;;-145.18;100.00;46693.59;6212132;23;20011;-75
2022/10/06 02:14:42;;;;;;;13.17;1.90;;;;;;;-145.18;100.00;46685.78;6212409;23;20024;-75
2022/10/06 02:17:08;;;;;;;14.63;2.23;;;;;;;-145.18;100.00;46681.88;6212073;23;20016;-75
2022/10/06 02:19:34;;;;;;;21.23;2.00;;;;;;;-145.18;100.00;46679.94;6212596;23;20453;-75
2022/10/06 02:21:59;;;;;;;9.30;1.90;;;;;;;-145.18;100.00;46683.84;6212945;23;20330;-75
2022/10/06 02:24:25;;;;;;;27.23;2.13;;;;;;;-145.18;100.00;46676.03;6214224;23;20012;-75
2022/10/06 02:26:52;;;;;;;12.63;1.83;;;;;;;-145.18;100.00;46689.69;6213848;23;20422;-75
2022/10/06 02:29:17;;;;;;;16.97;2.87;;;;;;;-145.18;100.00;46687.75;6214471;23;20008;-75
2022/10/06 02:31:43;;;;;;;18.60;2.43;;;;;;;-145.18;100.00;46689.69;6214086;23;20012;-75
2022/10/06 02:34:09;;;;;;;16.90;2.03;;;;;;;-145.18;100.00;46691.66;6213966;23;20012;-75
2022/10/06 02:36:34;;;;;;;13.77;1.90;;;;;;;-145.18;100.00;46691.66;6214317;23;20111;-76
2022/10/06 02:38:59;;;;;;;16.97;2.80;;;;;;;-145.18;100.00;46689.69;6213333;23;20517;-76
2022/10/06 02:41:25;;;;;;;16.53;2.00;;;;;;;-145.18;100.00;46691.66;6213908;23;20012;-76
2022/10/06 02:43:54;;;;;;;11.07;1.80;;;;;;;-145.18;100.00;46687.75;6213596;23;20349;-75
2022/10/06 02:46:19;;;;;;;13.90;1.97;;;;;;;-145.18;100.00;46691.66;6214378;23;20614;-75
2022/10/06 02:48:45;;;;;;;14.97;2.10;;;;;;;-145.18;100.00;46687.75;6213359;23;20005;-75
2022/10/06 02:51:14;;;;;;;21.50;2.77;;;;;;;-145.18;100.00;46679.94;6214102;23;20497;-75
2022/10/06 02:53:41;;;;;;;17.87;1.67;;;;;;;-145.18;100.00;46693.59;6213788;23;20008;-75
2022/10/06 02:56:14;;;;;;;15.20;1.90;;;;;;;-145.18;100.00;46693.59;6213992;23;20024;-75
2022/10/06 02:58:41;;;;;;;21.90;2.67;;;;;;;-145.18;100.00;46689.69;6213944;23;20008;-75
2022/10/06 03:01:18;;;;;;;14.27;2.50;;;;;;;-145.18;100.00;46681.88;6214348;23;20000;-75
2022/10/06 03:03:45;;;;;;;17.50;2.40;;;;;;;-145.18;100.00;46687.75;6182911;23;20096;-75
2022/10/06 03:06:25;;;;;;;15.90;2.23;;;;;;;-145.18;100.00;46689.69;6184131;23;20015;-75
2022/10/06 03:08:53;;;;;;;14.47;3.43;;;;;;;-145.18;100.00;46687.75;6183466;23;20040;-75
2022/10/06 03:11:25;;;;;;;19.23;2.40;;;;;;;-145.18;100.00;46685.78;6184084;23;20001;-75
2022/10/06 03:13:51;;;;;;;17.00;1.90;;;;;;;-145.18;100.00;46679.94;6182731;23;20062;-75
2022/10/06 03:16:29;;;;;;;14.77;2.03;;;;;;;-145.18;100.00;46693.59;6183223;23;20088;-75
2022/10/06 03:18:55;;;;;;;17.00;1.93;;;;;;;-145.18;100.00;46695.56;6182781;23;20076;-75
2022/10/06 03:21:22;;;;;;;16.00;2.20;;;;;;;-145.18;100.00;46689.69;6183440;23;20437;-75
2022/10/06 03:23:50;;;;;;;14.37;1.97;;;;;;;-145.18;100.00;46693.59;6182724;23;20013;-75
2022/10/06 03:26:18;;;;;;;12.67;2.37;;;;;;;-145.18;100.00;46693.59;6183457;23;20338;-75
2022/10/06 03:28:43;;;;;;;20.73;2.50;;;;;;;-145.18;100.00;46691.66;6181092;23;20009;-74
2022/10/06 03:31:09;;;;;;;15.67;2.20;;;;;;;-145.18;100.00;46693.59;6155464;23;20015;-73
2022/10/06 03:33:34;;;;;;;12.57;1.80;;;;;;;-145.18;100.00;46691.66;6182118;23;20056;-73
2022/10/06 03:36:08;;;;;;;10.97;1.60;;;;;;;-145.18;100.00;46689.69;6182713;23;20339;-74
2022/10/06 03:38:34;;;;;;;9.23;2.03;;;;;;;-145.18;100.00;46689.69;6182658;23;20031;-73
2022/10/06 03:41:04;;;;;;;13.63;2.03;;;;;;;-145.18;100.00;46679.94;6183155;23;20091;-73
2022/10/06 03:43:30;;;;;;;22.90;2.27;;;;;;;-145.18;100.00;46685.78;6182576;23;20492;-73
2022/10/06 03:45:56;;;;;;;23.73;3.20;;;;;;;-145.18;100.00;46687.75;6183185;23;20009;-74
2022/10/06 03:48:22;;;;;;;15.53;3.00;;;;;;;-145.18;100.00;46685.78;6182478;23;20426;-73
2022/10/06 03:50:56;;;;;;;20.70;2.10;;;;;;;-145.18;100.00;46685.78;6183600;23;20055;-74
2022/10/06 03:53:26;;;;;;;13.57;1.93;;;;;;;-145.18;100.00;46687.75;6182779;23;20048;-74
2022/10/06 03:56:10;;;;;;;18.70;2.60;;;;;;;-145.18;100.00;46687.75;6183607;23;20005;-73
2022/10/06 03:58:38;;;;;;;13.47;2.33;;;;;;;-145.18;100.00;46683.84;6182440;23;20040;-73
2022/10/06 04:01:05;;;;;;;17.67;2.03;;;;;;;-145.18;100.00;46691.66;6182978;23;20075;-74
2022/10/06 04:03:31;;;;;;;12.87;2.23;;;;;;;-145.18;100.00;46685.78;6182044;23;20024;-75
2022/10/06 04:06:00;;;;;;;16.67;2.10;;;;;;;-145.18;100.00;46685.78;6182631;23;20350;-76
2022/10/06 04:08:27;;;;;;;13.47;2.43;;;;;;;-145.18;100.00;46681.88;6182225;23;20043;-76
2022/10/06 04:10:53;;;;;;;21.77;2.73;;;;;;;-145.18;100.00;46687.75;6182432;23;20432;-75
2022/10/06 04:13:20;;;;;;;16.17;2.23;;;;;;;-145.18;100.00;46676.03;6182167;23;20039;-76
2022/10/06 04:15:45;;;;;;;18.63;3.00;;;;;;;-145.18;100.00;46681.88;6182774;23;20001;-75
2022/10/06 04:18:11;;;;;;;21.67;2.73;;;;;;;-145.18;100.00;46679.94;6182562;23;20475;-73
2022/10/06 04:20:37;;;;;;;13.37;2.03;;;;;;;-145.18;100.00;46674.06;6182932;23;20418;-76
2022/10/06 04:23:04;;;;;;;22.87;2.67;;;;;;;-145.18;100.00;46676.03;6182710;23;20024;-76
2022/10/06 04:25:30;;;;;;;23.10;2.60;;;;;;;-145.18;100.00;46676.03;6183077;23;20012;-76
2022/10/06 04:27:56;;;;;;;20.47;2.63;;;;;;;-145.18;100.00;46672.13;6181627;23;20076;-76
2022/10/06 04:30:22;;;;;;;13.27;2.03;;;;;;;-145.18;100.00;46676.03;6181289;23;20091;-73
2022/10/06 04:32:47;;;;;;;18.43;2.30;;;;;;;-145.18;100.00;46668.22;6182020;23;20434;-73
2022/10/06 04:35:13;;;;;;;21.47;2.97;;;;;;;-145.18;100.00;46681.88;6156483;23;20013;-75
2022/10/06 04:37:39;;;;;;;20.97;2.10;;;;;;;-145.18;100.00;46676.03;6182050;23;20009;-76
2022/10/06 04:40:05;;;;;;;18.87;2.33;;;;;;;-145.18;100.00;46677.97;6181537;23;20067;-75
2022/10/06 04:42:30;;;;;;;20.43;2.90;;;;;;;-145.18;100.00;46676.03;6182605;23;20009;-76
2022/10/06 04:44:56;;;;;;;17.70;3.17;;;;;;;-145.18;100.00;46674.06;6182499;23;20016;-75
2022/10/06 04:47:21;;;;;;;23.97;2.93;;;;;;;-145.18;100.00;46677.97;6155879;23;20485;-75
2022/10/06 04:49:46;;;;;;;24.20;2.60;;;;;;;-145.18;100.00;46670.16;6182260;23;20383;-76
2022/10/06 04:52:12;;;;;;;18.73;2.60;;;;;;;-145.18;100.00;46674.06;6181215;23;20032;-76
2022/10/06 04:54:38;;;;;;;18.37;2.70;;;;;;;-145.18;100.00;46670.16;6182302;23;20016;-75
2022/10/06 04:57:04;;;;;;;15.17;2.13;;;;;;;-145.18;100.00;46670.16;6182341;23;20423;-75
2022/10/06 05:02:14;;;;;;;19.50;3.53;;;;;;;-145.18;100.00;46676.03;6136195;23;20024;-75
2022/10/06 05:04:40;;;;;;;15.83;2.97;;;;;;;-145.18;100.00;46674.06;6181470;23;20009;-75
2022/10/06 05:07:05;;;;;;;15.30;2.10;;;;;;;-145.18;100.00;46664.31;6182100;23;20008;-75
2022/10/06 05:09:31;;;;;;;20.97;2.47;;;;;;;-145.18;100.00;46674.06;6182250;23;20442;-75
2022/10/06 05:11:56;;;;;;;17.83;3.70;;;;;;;-145.18;100.00;46666.25;6182653;23;20528;-74
2022/10/06 05:14:22;;;;;;;21.87;3.17;;;;;;;-145.18;100.00;46676.03;6182255;23;20404;-75
2022/10/06 05:16:47;;;;;;;19.10;2.63;;;;;;;-145.18;100.00;46676.03;6156116;23;20009;-75
2022/10/06 05:19:13;;;;;;;24.37;3.67;;;;;;;-145.18;100.00;46670.16;6182045;23;20009;-74
2022/10/06 05:21:39;;;;;;;16.47;2.97;;;;;;;-145.18;100.00;46672.13;6182320;23;20001;-74
2022/10/06 05:24:04;;;;;;;25.17;2.57;;;;;;;-145.18;100.00;46670.16;6181522;23;20256;-74
2022/10/06 05:26:33;;;;;;;24.47;2.97;;;;;;;-145.18;100.00;46668.22;6182931;23;20001;-74
2022/10/06 05:28:58;;;;;;;19.63;2.50;;;;;;;-145.18;100.00;46668.22;6181716;23;20334;-74
2022/10/06 05:31:29;;;;;;;20.43;2.17;;;;;;;-145.18;100.00;46666.25;6182728;23;20005;-74
2022/10/06 05:33:56;;;;;;;21.33;2.43;;;;;;;-145.18;100.00;46666.25;6182193;23;20005;-74
2022/10/06 05:36:24;;;;;;;22.77;2.70;;;;;;;-145.18;100.00;46666.25;6182121;23;20040;-74
2022/10/06 05:38:49;;;;;;;17.83;2.60;;;;;;;-145.18;100.00;46666.25;6181677;23;20008;-74
2022/10/06 05:41:18;;;;;;;14.63;2.23;;;;;;;-145.18;100.00;46670.16;6182649;23;20009;-74
2022/10/06 05:43:44;;;;;;;23.03;3.23;;;;;;;-145.18;100.00;46668.22;6182004;23;20446;-74
2022/10/06 05:46:23;;;;;;;21.07;2.83;;;;;;;-145.18;100.00;46666.25;6182508;23;20434;-74
2022/10/06 05:48:54;;;;;;;21.77;2.77;;;;;;;-145.18;100.00;46670.16;6181590;23;20454;-74
2022/10/06 05:51:21;;;;;;;18.40;3.30;;;;;;;-145.18;100.00;46666.25;6182806;23;20001;-74
2022/10/06 05:53:47;;;;;;;21.03;3.30;;;;;;;-145.18;100.00;46668.22;6182256;23;20009;-74
2022/10/06 05:56:17;;;;;;;21.30;3.00;;;;;;;-145.18;100.00;46664.31;6183390;23;20457;-74
2022/10/06 05:58:44;;;;;;;24.30;2.97;;;;;;;-145.18;100.00;46664.31;6183838;23;20048;-74
2022/10/06 06:01:14;;;;;;;25.57;2.60;;;;;;;-145.18;100.00;46664.31;6184655;23;20064;-74
2022/10/06 06:03:41;;;;;;;26.63;2.90;;;;;;;-145.18;100.00;46662.34;6183847;23;20700;-74
2022/10/06 06:06:19;;;;;;;19.97;2.60;;;;;;;-145.18;100.00;46660.41;6184625;23;20084;-74
2022/10/06 06:08:46;;;;;;;15.87;2.83;;;;;;;-145.18;100.00;46664.31;6183768;23;20008;-74
2022/10/06 06:11:13;;;;;;;21.87;2.83;;;;;;;-145.18;100.00;46670.16;6184259;23;20301;-74
2022/10/06 06:13:39;;;;;;;13.77;2.47;;;;;;;-145.18;100.00;46662.34;6184044;23;20008;-74
2022/10/06 06:16:06;;;;;;;21.20;2.93;;;;;;;-145.18;100.00;46672.13;6183873;23;20231;-74
2022/10/06 06:18:36;;;;;;;25.63;2.87;;;;;;;-145.18;100.00;46664.31;6183913;23;20012;-74
2022/10/06 06:21:04;;;;;;;14.50;2.80;;;;;;;-145.18;100.00;46664.31;6182536;23;20334;-74
2022/10/06 06:23:35;;;;;;;14.07;2.43;;;;;;;-145.18;100.00;46670.16;6181992;23;20281;-74
2022/10/06 06:26:08;;;;;;;26.27;3.47;;;;;;;-145.18;100.00;46662.34;6183001;23;20001;-74
2022/10/06 06:28:35;;;;;;;23.10;2.87;;;;;;;-145.18;100.00;46674.06;6182689;23;20473;-74
2022/10/06 06:31:13;;;;;;;20.67;2.80;;;;;;;-145.18;100.00;46662.34;6183458;23;20005;-74
2022/10/06 06:33:40;;;;;;;28.90;4.77;;;;;;;-145.18;100.00;46664.31;6184006;23;20088;-74
2022/10/06 06:36:34;;;;;;;19.23;3.30;;;;;;;-145.18;100.00;46672.13;6184296;23;20024;-74
2022/10/06 06:39:01;;;;;;;18.00;2.90;;;;;;;-145.18;100.00;46668.22;6183467;23;20533;-74
2022/10/06 06:41:31;;;;;;;29.53;4.50;;;;;;;-145.18;100.00;46676.03;6184698;23;20012;-74
2022/10/06 06:43:58;;;;;;;25.17;3.63;;;;;;;-145.18;100.00;46676.03;6183589;23;20005;-74
2022/10/06 06:46:30;;;;;;;21.27;3.17;;;;;;;-145.18;100.00;46668.22;6184233;23;20330;-74
2022/10/06 06:48:57;;;;;;;26.30;3.30;;;;;;;-145.18;100.00;46668.22;6183747;23;20029;-74
2022/10/06 06:51:23;;;;;;;21.37;4.17;;;;;;;-145.18;100.00;46670.16;6184485;23;20074;-74
2022/10/06 06:53:50;;;;;;;19.83;2.97;;;;;;;-145.18;100.00;46668.22;6183297;23;20017;-74
2022/10/06 06:56:16;;;;;;;19.27;3.50;;;;;;;-145.18;100.00;46666.25;6184150;23;20020;-74
2022/10/06 06:58:46;;;;;;;16.90;3.17;;;;;;;-145.18;100.00;46668.22;6183461;23;20027;-75
2022/10/06 07:01:14;;;;;;;15.63;2.60;;;;;;;-145.18;100.00;46668.22;6184156;23;20005;-74
2022/10/06 07:03:40;;;;;;;23.93;3.50;;;;;;;-145.18;100.00;46672.13;6183222;23;20394;-74
2022/10/06 07:06:08;;;;;;;24.83;2.90;;;;;;;-145.18;100.00;46668.22;6184032;23;20020;-75
2022/10/06 07:08:35;;;;;;;20.03;3.50;;;;;;;-145.18;100.00;46668.22;6156949;23;20085;-74
2022/10/06 07:11:13;;;;;;;25.43;2.63;;;;;;;-145.18;100.00;46670.16;6184011;23;20037;-74
2022/10/06 07:13:39;;;;;;;19.47;4.07;;;;;;;-145.18;100.00;46668.22;6157012;23;20335;-74
2022/10/06 07:27:01;;;;;;;22.47;3.70;;;;;;;-145.18;100.00;46677.97;6183547;23;20024;-74
2022/10/06 07:29:26;;;;;;;24.40;2.90;;;;;;;-145.18;100.00;46676.03;6183201;23;20013;-74
2022/10/06 07:31:52;;;;;;;14.77;2.20;;;;;;;-145.18;100.00;46679.94;6183477;23;20008;-74
2022/10/06 07:34:17;;;;;;;16.47;2.33;;;;;;;-145.18;100.00;46677.97;6183060;23;20024;-74
2022/10/06 07:36:43;;;;;;;18.37;2.50;;;;;;;-145.18;100.00;46681.88;6183426;23;20461;-74
2022/10/06 07:39:09;;;;;;;24.13;3.83;;;;;;;-145.18;100.00;46679.94;6183625;23;20005;-74
2022/10/06 07:41:34;;;;;;;15.23;3.27;;;;;;;-145.18;100.00;46681.88;6183795;23;20013;-74
2022/10/06 07:44:03;;;;;;;18.73;2.50;;;;;;;-145.18;100.00;46679.94;6183086;23;20009;-74
2022/10/06 07:46:29;;;;;;;18.43;2.67;;;;;;;-145.18;100.00;46679.94;6183645;23;20032;-74
2022/10/06 07:48:54;;;;;;;13.73;2.50;;;;;;;-145.18;100.00;46679.94;6182986;23;20013;-74
2022/10/06 07:51:20;;;;;;;19.13;3.77;;;;;;;-145.18;100.00;46677.97;6183778;23;20000;-75
2022/10/06 07:53:49;;;;;;;15.90;2.50;;;;;;;-145.18;100.00;46677.97;6182993;23;20016;-74
2022/10/06 07:56:19;;;;;;;16.43;2.73;;;;;;;-145.18;100.00;46679.94;6183678;23;20001;-74
2022/10/06 07:58:44;;;;;;;25.63;2.93;;;;;;;-145.18;100.00;46670.16;6182758;23;20094;-74
2022/10/06 08:01:12;;;;;;;18.87;3.40;;;;;;;-145.18;100.00;46656.50;6183483;23;20087;-74
2022/10/06 08:03:39;;;;;;;19.77;2.60;;;;;;;-145.18;100.00;46648.69;6182696;23;20009;-74
2022/10/06 08:06:05;;;;;;;15.20;3.00;;;;;;;-145.18;100.00;46642.81;6183381;23;20015;-74
2022/10/06 08:08:36;;;;;;;22.53;3.77;;;;;;;-145.18;100.00;46648.69;6182648;23;19997;-74
2022/10/06 08:11:04;;;;;;;20.87;3.70;;;;;;;-145.18;100.00;46644.78;6183045;23;20431;-74
2022/10/06 08:13:32;;;;;;;16.60;2.50;;;;;;;-145.18;100.00;46619.38;6182650;23;20040;-73
2022/10/06 08:16:09;;;;;;;13.40;2.47;;;;;;;-145.18;100.00;46592.03;6182952;23;20056;-73
2022/10/06 08:18:35;;;;;;;17.67;2.43;;;;;;;-145.18;100.00;46576.41;6182574;23;20036;-73
2022/10/06 08:21:12;;;;;;;18.83;2.43;;;;;;;-145.18;100.00;46570.53;6182723;23;20005;-73
2022/10/06 08:23:39;;;;;;;17.83;2.50;;;;;;;-145.18;100.00;46568.59;6182720;23;19997;-73
2022/10/06 08:26:05;;;;;;;17.67;2.53;;;;;;;-145.18;100.00;46564.69;6182940;23;20485;-73
2022/10/06 08:28:31;;;;;;;18.97;2.67;;;;;;;-145.18;100.00;46560.78;6182625;23;20005;-73
2022/10/06 08:30:56;;;;;;;20.40;2.97;;;;;;;-145.18;100.00;46560.78;6182964;23;20013;-73
2022/10/06 08:33:22;;;;;;;16.97;2.70;;;;;;;-145.18;100.00;46558.81;6182509;23;20013;-73
2022/10/06 08:35:47;;;;;;;14.07;3.03;;;;;;;-145.18;100.00;46556.88;6183180;23;20347;-73
2022/10/06 08:38:13;;;;;;;20.43;4.20;;;;;;;-145.18;100.00;46560.78;6182754;23;20013;-73
2022/10/06 08:40:42;;;;;;;20.27;2.60;;;;;;;-145.18;100.00;46564.69;6182965;23;20009;-73
2022/10/06 08:43:16;;;;;;;13.33;2.50;;;;;;;-145.18;100.00;46560.78;6182178;23;20009;-73
2022/10/06 08:45:44;;;;;;;19.97;3.53;;;;;;;-145.18;100.00;46572.50;6183203;23;20036;-73
2022/10/06 08:48:17;;;;;;;15.27;2.80;;;;;;;-145.18;100.00;46568.59;6182500;23;20008;-74
2022/10/06 08:50:59;;;;;;;14.70;2.47;;;;;;;-145.18;100.00;46562.72;6183070;23;20451;-73
2022/10/06 08:53:45;;;;;;;13.87;2.53;;;;;;;-145.18;100.00;46572.50;6181969;23;20009;-73
2022/10/06 08:56:24;;;;;;;16.95;3.58;;;;;;;-145.18;100.00;46580.31;6156431;23;20009;-73
2022/10/06 08:58:49;;;;;;;12.90;2.30;;;;;;;-145.18;100.00;46572.50;6182123;23;20327;-73
2022/10/06 09:01:43;;;;;;;14.90;2.77;;;;;;;-145.18;100.00;46572.50;6182989;23;20001;-73
2022/10/06 09:04:15;;;;;;;15.53;2.67;;;;;;;-145.18;100.00;46560.78;6167882;23;20042;-73
2022/10/06 09:06:59;;;;;;;18.70;2.90;;;;;;;-145.18;100.00;46578.34;6182726;23;20012;-73
2022/10/06 09:09:50;;;;;;;18.53;2.60;;;;;;;-145.18;100.00;46578.34;6182664;23;20005;-73
2022/10/06 09:12:38;;;;;;;19.43;3.47;;;;;;;-145.18;100.00;46578.34;6182508;23;20419;-73
2022/10/06 09:15:19;;;;;;;16.30;2.70;;;;;;;-145.18;100.00;46597.88;6181975;23;20453;-73
2022/10/06 09:18:10;;;;;;;17.40;2.83;;;;;;;-145.18;100.00;46597.88;6182476;23;20080;-73
2022/10/06 09:20:45;;;;;;;14.10;3.07;;;;;;;-145.18;100.00;46590.06;6166392;23;20415;-73
2022/10/06 09:23:46;;;;;;;15.65;2.38;;;;;;;-145.18;100.00;46601.78;6182979;23;20406;-73
2022/10/06 09:26:03;;;;;;;15.70;2.70;;;;;;;-145.18;100.00;46597.88;6182077;23;20009;-73
2022/10/06 09:28:28;;;;;;;16.23;2.50;;;;;;;-145.18;100.00;46597.88;6181980;23;20005;-73
2022/10/06 09:30:54;;;;;;;17.80;2.33;;;;;;;-145.18;100.00;46588.13;6181930;23;20103;-73
2022/10/06 09:33:23;;;;;;;18.53;2.73;;;;;;;-145.18;100.00;46588.13;6181983;23;20139;-74
2022/10/06 09:36:07;;;;;;;15.07;2.70;;;;;;;-145.18;100.00;46590.06;6182716;23;20005;-72
2022/10/06 09:38:54;;;;;;;14.80;2.13;;;;;;;-145.18;100.00;46597.88;6182330;23;20009;-73
2022/10/06 09:41:27;;;;;;;11.07;1.97;;;;;;;-145.18;100.00;46597.88;6182364;23;20001;-73
2022/10/06 09:43:56;;;;;;;12.27;2.60;;;;;;;-145.18;100.00;46613.50;6181772;23;20633;-73
2022/10/06 09:46:34;;;;;;;11.70;2.23;;;;;;;-145.18;100.00;46603.75;6182558;23;20319;-73
2022/10/06 09:49:16;;;;;;;12.17;2.00;;;;;;;-145.18;100.00;46607.66;6181868;23;20014;-73
2022/10/06 09:52:07;;;;;;;14.13;2.83;;;;;;;-145.18;100.00;46611.56;6182797;23;20016;-73
2022/10/06 09:54:33;;;;;;;20.80;2.43;;;;;;;-145.18;100.00;46611.56;6182224;23;20013;-73
2022/10/06 09:57:08;;;;;;;14.57;2.33;;;;;;;-145.18;100.00;46627.19;6182523;23;20043;-73
2022/10/06 09:59:36;;;;;;;16.73;2.50;;;;;;;-145.18;100.00;46627.19;6181881;23;20013;-73
2022/10/06 10:02:03;;;;;;;14.50;2.77;;;;;;;-145.18;100.00;46625.22;6182431;23;20326;-72
2022/10/06 10:04:34;;;;;;;13.33;2.37;;;;;;;-145.18;100.00;46633.06;6182466;23;20029;-73
2022/10/06 10:07:23;;;;;;;19.47;2.67;;;;;;;-145.18;100.00;46617.41;6182611;23;20051;-73
2022/10/06 10:09:49;;;;;;;8.93;2.40;;;;;;;-145.18;100.00;46617.41;6182018;23;20005;-73
2022/10/06 10:12:32;;;;;;;12.07;2.10;;;;;;;-145.18;100.00;46617.41;6182537;23;20074;-73
2022/10/06 10:15:19;;;;;;;12.27;2.27;;;;;;;-145.18;100.00;46638.91;6155183;23;20382;-73
2022/10/06 10:17:55;;;;;;;14.27;2.20;;;;;;;-145.18;100.00;46699.47;6182073;23;20065;-73
2022/10/06 10:20:33;;;;;;;13.20;2.47;;;;;;;-145.18;100.00;46719.00;6182298;23;20009;-73
2022/10/06 10:23:02;;;;;;;9.07;1.90;;;;;;;-145.18;100.00;46699.47;6182072;23;20005;-73
2022/10/06 10:25:34;;;;;;;15.50;2.70;;;;;;;-145.18;100.00;46742.44;6181841;23;20025;-73
2022/10/06 10:28:20;;;;;;;16.43;3.13;;;;;;;-145.18;100.00;46744.38;6182497;23;20005;-73
2022/10/06 10:31:11;;;;;;;13.03;1.60;;;;;;;-145.18;100.00;46773.69;6182397;23;20059;-73
2022/10/06 10:34:01;;;;;;;11.07;1.60;;;;;;;-145.18;100.00;46746.34;6181862;23;20016;-73
2022/10/06 10:37:03;;;;;;;12.53;2.70;;;;;;;-145.18;100.00;46705.31;6182398;23;20012;-73
2022/10/06 10:39:51;;;;;;;11.00;2.47;;;;;;;-145.18;100.00;46695.56;6135838;23;20128;-73
2022/10/06 10:42:29;;;;;;;8.50;2.00;;;;;;;-145.18;100.00;46703.38;6183201;23;20121;-76
2022/10/06 10:45:04;;;;;;;13.53;2.20;;;;;;;-145.18;100.00;46719.00;6184027;23;20405;-73
2022/10/06 10:47:40;;;;;;;8.38;2.22;;;;;;;-145.18;100.00;46717.03;6184694;23;20442;-74
2022/10/06 10:50:27;;;;;;;9.57;1.83;;;;;;;-145.18;100.00;46746.34;6183834;23;20001;-74
2022/10/06 10:53:00;;;;;;;13.67;2.87;;;;;;;-145.18;100.00;46840.09;6183778;23;20009;-74
2022/10/06 10:55:38;;;;;;;10.00;1.93;;;;;;;-145.18;100.00;47359.75;6183712;23;20024;-74
2022/10/06 10:58:15;;;;;;;5.03;1.60;;;;;;;-145.18;100.00;47359.75;6183988;23;20439;-76
2022/10/06 11:00:43;;;;;;;8.40;1.50;;;;;;;-145.18;100.00;47299.19;6184054;23;20001;-73
2022/10/06 11:03:10;;;;;;;11.40;1.87;;;;;;;-145.18;100.00;47264.03;6183594;23;20012;-73
2022/10/06 11:05:54;;;;;;;16.50;1.30;;;;;;;-145.18;100.00;47316.78;6184171;23;20009;-73
2022/10/06 11:08:39;;;;;;;7.70;1.83;;;;;;;-145.18;100.00;47252.31;6184401;23;20378;-73
2022/10/06 11:11:35;;;;;;;8.67;1.87;;;;;;;-145.18;100.00;47246.44;6184264;23;20009;-74
2022/10/06 11:14:03;;;;;;;7.32;1.80;;;;;;;-145.18;100.00;47254.25;6168258;23;20039;-73
2022/10/06 11:17:01;;;;;;;7.83;1.60;;;;;;;-145.18;100.00;47265.97;6184489;23;20072;-73
2022/10/06 11:19:46;;;;;;;6.43;1.53;;;;;;;-145.18;100.00;47252.31;6126598;23;20013;-73
2022/10/06 11:22:49;;;;;;;9.48;1.83;;;;;;;-145.18;100.00;47322.63;6183941;23;19997;-73
2022/10/06 11:25:32;;;;;;;11.33;1.80;;;;;;;-145.18;100.00;47348.03;6183975;23;20020;-74
2022/10/06 11:28:19;;;;;;;9.70;1.47;;;;;;;-145.18;100.00;47424.22;6184075;23;20032;-73
2022/10/06 11:31:09;;;;;;;8.13;1.60;;;;;;;-145.18;100.00;47387.09;6183879;23;20021;-73